createdAt,value
2017-09-03T00:00:13.284Z,0
2017-09-03T00:01:22.246Z,0
2017-09-03T00:02:31.258Z,0
2017-09-03T00:03:40.148Z,0
2017-09-03T00:04:49.049Z,0
2017-09-03T00:05:57.883Z,0
2017-09-03T00:07:06.712Z,0
2017-09-03T00:08:15.537Z,0
2017-09-03T00:09:24.365Z,0
2017-09-03T00:10:33.200Z,0
2017-09-03T00:11:42.081Z,0
2017-09-03T00:12:51.153Z,0
2017-09-03T00:14:00.112Z,0
2017-09-03T00:15:09.325Z,0
2017-09-03T00:16:18.216Z,0
2017-09-03T00:17:27.101Z,0
2017-09-03T00:18:36.431Z,0
2017-09-03T00:19:45.474Z,0
2017-09-03T00:20:54.301Z,0
2017-09-03T00:22:03.140Z,0
2017-09-03T00:23:12.215Z,0
2017-09-03T00:24:21.470Z,0
2017-09-03T00:25:30.729Z,0
2017-09-03T00:26:39.648Z,0
2017-09-03T00:27:48.483Z,0
2017-09-03T00:28:57.331Z,0
2017-09-03T00:30:06.305Z,0
2017-09-03T00:31:15.131Z,0
2017-09-03T00:32:24.099Z,0
2017-09-03T00:33:33.316Z,0
2017-09-03T00:34:42.144Z,0
2017-09-03T00:35:51.032Z,0
2017-09-03T00:36:59.852Z,0
2017-09-03T00:38:08.681Z,0
2017-09-03T00:39:17.514Z,0
2017-09-03T00:40:26.343Z,0
2017-09-03T00:41:35.171Z,0
2017-09-03T00:42:44.330Z,0
2017-09-03T00:43:53.157Z,0
2017-09-03T00:45:01.983Z,0
2017-09-03T00:46:10.815Z,0
2017-09-03T00:47:19.643Z,0
2017-09-03T00:48:28.469Z,0
2017-09-03T00:49:37.302Z,0
2017-09-03T00:50:46.131Z,0
2017-09-03T00:51:54.960Z,0
2017-09-03T00:53:03.786Z,0
2017-09-03T00:54:12.618Z,0
2017-09-03T00:55:21.446Z,0
2017-09-03T00:56:30.274Z,0
2017-09-03T00:57:39.101Z,0
2017-09-03T00:58:47.930Z,0
2017-09-03T00:59:56.763Z,0
2017-09-03T01:01:05.591Z,0
2017-09-03T01:02:14.419Z,0
2017-09-03T01:03:23.248Z,0
2017-09-03T01:04:32.074Z,0
2017-09-03T01:05:40.902Z,0
2017-09-03T01:06:49.726Z,0
2017-09-03T01:07:58.559Z,0
2017-09-03T01:09:07.385Z,0
2017-09-03T01:10:16.214Z,0
2017-09-03T01:11:25.043Z,0
2017-09-03T01:12:33.873Z,0
2017-09-03T01:13:42.701Z,0
2017-09-03T01:14:51.527Z,0
2017-09-03T01:16:00.355Z,0
2017-09-03T01:17:09.178Z,0
2017-09-03T01:18:18.005Z,0
2017-09-03T01:19:26.831Z,0
2017-09-03T01:20:35.684Z,0
2017-09-03T01:21:44.491Z,0
2017-09-03T01:22:53.318Z,0
2017-09-03T01:24:02.142Z,0
2017-09-03T01:25:10.971Z,0
2017-09-03T01:26:19.796Z,0
2017-09-03T01:27:28.625Z,0
2017-09-03T01:28:37.781Z,0
2017-09-03T01:29:46.611Z,0
2017-09-03T01:30:55.438Z,0
2017-09-03T01:32:04.591Z,0
2017-09-03T01:33:13.422Z,0
2017-09-03T01:34:22.244Z,0
2017-09-03T01:35:31.078Z,0
2017-09-03T01:36:39.905Z,0
2017-09-03T01:37:48.733Z,0
2017-09-03T01:38:57.558Z,0
2017-09-03T01:40:06.387Z,0
2017-09-03T01:41:15.538Z,0
2017-09-03T01:42:24.368Z,0
2017-09-03T01:43:33.194Z,0
2017-09-03T01:44:42.020Z,0
2017-09-03T01:45:50.848Z,0
2017-09-03T01:46:59.681Z,0
2017-09-03T01:48:08.501Z,0
2017-09-03T01:49:17.334Z,0
2017-09-03T01:50:26.158Z,0
2017-09-03T01:51:34.988Z,0
2017-09-03T01:52:43.812Z,0
2017-09-03T01:53:52.665Z,0
2017-09-03T01:55:01.470Z,0
2017-09-03T01:56:10.300Z,0
2017-09-03T01:57:19.128Z,0
2017-09-03T01:58:27.951Z,0
2017-09-03T01:59:36.790Z,0
2017-09-03T02:00:45.615Z,0
2017-09-03T02:01:54.437Z,0
2017-09-03T02:03:03.270Z,0
2017-09-03T02:04:12.091Z,0
2017-09-03T02:05:20.927Z,0
2017-09-03T02:06:29.756Z,0
2017-09-03T02:07:38.588Z,0
2017-09-03T02:08:47.411Z,0
2017-09-03T02:09:56.237Z,0
2017-09-03T02:11:05.072Z,0
2017-09-03T02:12:13.897Z,0
2017-09-03T02:13:22.728Z,0
2017-09-03T02:14:31.554Z,0
2017-09-03T02:15:40.382Z,0
2017-09-03T02:16:49.212Z,0
2017-09-03T02:17:58.042Z,0
2017-09-03T02:19:06.869Z,0
2017-09-03T02:20:15.693Z,0
2017-09-03T02:21:24.525Z,0
2017-09-03T02:22:33.351Z,0
2017-09-03T02:23:42.179Z,0
2017-09-03T02:24:51.006Z,0
2017-09-03T02:25:59.831Z,0
2017-09-03T02:27:08.662Z,0
2017-09-03T02:28:17.494Z,0
2017-09-03T02:29:26.320Z,0
2017-09-03T02:30:35.152Z,0
2017-09-03T02:31:43.977Z,0
2017-09-03T02:32:52.815Z,0
2017-09-03T02:34:01.638Z,0
2017-09-03T02:35:10.466Z,0
2017-09-03T02:36:19.292Z,0
2017-09-03T02:37:28.122Z,0
2017-09-03T02:38:36.957Z,0
2017-09-03T02:39:45.783Z,0
2017-09-03T02:40:54.612Z,0
2017-09-03T02:42:03.437Z,0
2017-09-03T02:43:12.271Z,0
2017-09-03T02:44:21.094Z,0
2017-09-03T02:45:30.245Z,0
2017-09-03T02:46:39.073Z,0
2017-09-03T02:47:47.898Z,0
2017-09-03T02:48:56.724Z,0
2017-09-03T02:50:05.551Z,0
2017-09-03T02:51:14.379Z,0
2017-09-03T02:52:23.211Z,0
2017-09-03T02:53:32.035Z,0
2017-09-03T02:54:40.861Z,0
2017-09-03T02:55:49.691Z,0
2017-09-03T02:56:58.522Z,0
2017-09-03T02:58:07.347Z,0
2017-09-03T02:59:16.178Z,0
2017-09-03T03:00:25.006Z,0
2017-09-03T03:01:33.834Z,0
2017-09-03T03:02:42.664Z,0
2017-09-03T03:03:51.488Z,0
2017-09-03T03:05:00.319Z,0
2017-09-03T03:06:09.148Z,0
2017-09-03T03:07:17.982Z,0
2017-09-03T03:08:26.810Z,0
2017-09-03T03:09:35.638Z,0
2017-09-03T03:10:44.467Z,0
2017-09-03T03:11:53.296Z,0
2017-09-03T03:13:02.171Z,0
2017-09-03T03:14:10.999Z,0
2017-09-03T03:15:19.821Z,0
2017-09-03T03:16:28.649Z,0
2017-09-03T03:17:37.471Z,0
2017-09-03T03:18:46.303Z,0
2017-09-03T03:19:55.128Z,0
2017-09-03T03:21:03.958Z,0
2017-09-03T03:22:12.786Z,0
2017-09-03T03:23:21.611Z,0
2017-09-03T03:24:30.438Z,0
2017-09-03T03:25:39.268Z,0
2017-09-03T03:26:48.096Z,0
2017-09-03T03:27:57.254Z,0
2017-09-03T03:29:06.076Z,0
2017-09-03T03:30:15.228Z,0
2017-09-03T03:31:24.055Z,0
2017-09-03T03:32:32.885Z,0
2017-09-03T03:33:41.715Z,0
2017-09-03T03:34:50.538Z,0
2017-09-03T03:35:59.369Z,0
2017-09-03T03:37:08.195Z,0
2017-09-03T03:38:17.023Z,0
2017-09-03T03:39:25.851Z,0
2017-09-03T03:40:34.680Z,0
2017-09-03T03:41:43.502Z,0
2017-09-03T03:42:52.330Z,0
2017-09-03T03:44:01.164Z,0
2017-09-03T03:45:10.313Z,0
2017-09-03T03:46:19.143Z,0
2017-09-03T03:47:28.289Z,0
2017-09-03T03:48:37.113Z,0
2017-09-03T03:49:45.943Z,0
2017-09-03T03:50:54.772Z,0
2017-09-03T03:52:03.598Z,0
2017-09-03T03:53:12.429Z,0
2017-09-03T03:54:21.251Z,0
2017-09-03T03:55:30.073Z,0
2017-09-03T03:56:38.904Z,0
2017-09-03T03:57:47.735Z,0
2017-09-03T03:58:56.558Z,0
2017-09-03T04:00:05.725Z,0
2017-09-03T04:01:14.557Z,0
2017-09-03T04:02:23.388Z,0
2017-09-03T04:03:32.541Z,4
2017-09-03T04:04:41.370Z,4
2017-09-03T04:05:50.198Z,0
2017-09-03T04:06:59.027Z,4
2017-09-03T04:08:07.849Z,4
2017-09-03T04:09:16.674Z,4
2017-09-03T04:10:25.509Z,4
2017-09-03T04:11:34.334Z,4
2017-09-03T04:12:43.154Z,4
2017-09-03T04:13:51.987Z,4
2017-09-03T04:15:01.138Z,4
2017-09-03T04:16:09.965Z,8
2017-09-03T04:17:18.791Z,8
2017-09-03T04:18:27.617Z,8
2017-09-03T04:19:36.768Z,8
2017-09-03T04:20:45.919Z,8
2017-09-03T04:21:54.747Z,12
2017-09-03T04:23:03.576Z,16
2017-09-03T04:24:12.400Z,16
2017-09-03T04:25:21.225Z,20
2017-09-03T04:26:30.054Z,20
2017-09-03T04:27:38.886Z,24
2017-09-03T04:28:47.710Z,28
2017-09-03T04:29:56.533Z,32
2017-09-03T04:31:05.357Z,36
2017-09-03T04:32:14.180Z,36
2017-09-03T04:33:23.009Z,44
2017-09-03T04:34:31.835Z,44
2017-09-03T04:35:40.664Z,52
2017-09-03T04:36:49.487Z,56
2017-09-03T04:37:58.320Z,56
2017-09-03T04:39:07.143Z,64
2017-09-03T04:40:15.972Z,64
2017-09-03T04:41:24.804Z,68
2017-09-03T04:42:33.628Z,72
2017-09-03T04:43:42.454Z,76
2017-09-03T04:44:51.283Z,84
2017-09-03T04:46:00.110Z,84
2017-09-03T04:47:08.938Z,92
2017-09-03T04:48:17.766Z,100
2017-09-03T04:49:26.589Z,108
2017-09-03T04:50:35.413Z,116
2017-09-03T04:51:44.246Z,124
2017-09-03T04:52:53.397Z,132
2017-09-03T04:54:02.230Z,132
2017-09-03T04:55:11.056Z,144
2017-09-03T04:56:19.880Z,144
2017-09-03T04:57:29.035Z,148
2017-09-03T04:58:37.862Z,148
2017-09-03T04:59:46.694Z,148
2017-09-03T05:00:55.525Z,152
2017-09-03T05:02:04.355Z,160
2017-09-03T05:03:13.182Z,168
2017-09-03T05:04:22.096Z,176
2017-09-03T05:05:31.033Z,180
2017-09-03T05:06:39.925Z,184
2017-09-03T05:07:49.126Z,192
2017-09-03T05:08:57.963Z,196
2017-09-03T05:10:07.289Z,204
2017-09-03T05:11:16.422Z,204
2017-09-03T05:12:25.450Z,208
2017-09-03T05:13:34.317Z,212
2017-09-03T05:14:43.201Z,216
2017-09-03T05:15:52.103Z,216
2017-09-03T05:17:01.018Z,220
2017-09-03T05:18:09.960Z,224
2017-09-03T05:19:18.905Z,224
2017-09-03T05:20:27.779Z,224
2017-09-03T05:21:36.705Z,224
2017-09-03T05:22:45.674Z,228
2017-09-03T05:23:55.098Z,240
2017-09-03T05:25:04.346Z,252
2017-09-03T05:26:13.645Z,264
2017-09-03T05:27:22.473Z,284
2017-09-03T05:28:31.651Z,292
2017-09-03T05:29:40.479Z,296
2017-09-03T05:30:49.348Z,300
2017-09-03T05:31:58.198Z,320
2017-09-03T05:33:07.055Z,344
2017-09-03T05:34:15.928Z,352
2017-09-03T05:35:24.754Z,364
2017-09-03T05:36:33.668Z,372
2017-09-03T05:37:42.555Z,380
2017-09-03T05:38:51.480Z,380
2017-09-03T05:40:00.306Z,392
2017-09-03T05:41:09.198Z,408
2017-09-03T05:42:18.145Z,432
2017-09-03T05:43:27.050Z,440
2017-09-03T05:44:36.018Z,448
2017-09-03T05:45:44.841Z,460
2017-09-03T05:46:53.738Z,472
2017-09-03T05:48:02.587Z,480
2017-09-03T05:49:11.508Z,460
2017-09-03T05:50:20.339Z,468
2017-09-03T05:51:29.209Z,480
2017-09-03T05:52:38.071Z,472
2017-09-03T05:53:46.900Z,484
2017-09-03T05:54:55.897Z,496
2017-09-03T05:56:04.724Z,504
2017-09-03T05:57:13.678Z,516
2017-09-03T05:58:22.506Z,524
2017-09-03T05:59:31.782Z,536
2017-09-03T06:00:41.049Z,540
2017-09-03T06:01:49.984Z,544
2017-09-03T06:02:58.910Z,544
2017-09-03T06:04:07.776Z,544
2017-09-03T06:05:16.656Z,556
2017-09-03T06:06:26.118Z,564
2017-09-03T06:07:35.655Z,564
2017-09-03T06:08:44.549Z,568
2017-09-03T06:09:53.428Z,576
2017-09-03T06:11:02.252Z,580
2017-09-03T06:12:11.451Z,600
2017-09-03T06:13:20.279Z,592
2017-09-03T06:14:29.486Z,596
2017-09-03T06:15:38.606Z,600
2017-09-03T06:16:47.433Z,608
2017-09-03T06:17:56.257Z,604
2017-09-03T06:19:05.090Z,620
2017-09-03T06:20:13.914Z,628
2017-09-03T06:21:22.747Z,620
2017-09-03T06:22:31.570Z,620
2017-09-03T06:23:40.396Z,616
2017-09-03T06:24:49.236Z,612
2017-09-03T06:25:58.059Z,616
2017-09-03T06:27:06.887Z,616
2017-09-03T06:28:15.719Z,620
2017-09-03T06:29:24.546Z,628
2017-09-03T06:30:33.379Z,624
2017-09-03T06:31:42.208Z,608
2017-09-03T06:32:51.036Z,624
2017-09-03T06:33:59.862Z,636
2017-09-03T06:35:08.702Z,652
2017-09-03T06:36:17.531Z,660
2017-09-03T06:37:26.363Z,668
2017-09-03T06:38:35.195Z,672
2017-09-03T06:39:44.021Z,700
2017-09-03T06:40:53.185Z,696
2017-09-03T06:42:02.008Z,724
2017-09-03T06:43:10.839Z,724
2017-09-03T06:44:19.665Z,736
2017-09-03T06:45:28.499Z,748
2017-09-03T06:46:37.353Z,784
2017-09-03T06:47:46.162Z,784
2017-09-03T06:48:54.994Z,820
2017-09-03T06:50:04.148Z,828
2017-09-03T06:51:12.975Z,864
2017-09-03T06:52:21.803Z,844
2017-09-03T06:53:30.685Z,848
2017-09-03T06:54:39.521Z,856
2017-09-03T06:55:48.346Z,868
2017-09-03T06:56:57.187Z,884
2017-09-03T06:58:06.013Z,884
2017-09-03T06:59:14.867Z,904
2017-09-03T07:00:23.708Z,924
2017-09-03T07:01:33.381Z,928
2017-09-03T07:02:43.356Z,976
2017-09-03T07:03:53.251Z,996
2017-09-03T07:05:02.515Z,1008
2017-09-03T07:06:11.349Z,1028
2017-09-03T07:07:20.180Z,1104
2017-09-03T07:08:29.122Z,1136
2017-09-03T07:09:38.273Z,1216
2017-09-03T07:10:47.263Z,1232
2017-09-03T07:11:56.606Z,1144
2017-09-03T07:13:05.665Z,1176
2017-09-03T07:14:14.559Z,1248
2017-09-03T10:31:29.573Z,676
2017-09-03T10:32:38.792Z,472
2017-09-03T10:33:47.653Z,408
2017-09-03T10:34:56.491Z,444
2017-09-03T10:36:05.385Z,484
2017-09-03T10:37:14.220Z,524
2017-09-03T10:38:23.069Z,544
2017-09-03T10:39:31.942Z,600
2017-09-03T10:40:40.889Z,636
2017-09-03T10:41:49.793Z,660
2017-09-03T10:42:58.636Z,740
2017-09-03T10:44:07.499Z,872
2017-09-03T10:45:16.538Z,1004
2017-09-03T10:46:26.310Z,1128
2017-09-03T10:47:35.184Z,1172
2017-09-03T10:48:44.059Z,1116
2017-09-03T10:49:52.992Z,1028
2017-09-03T10:51:01.904Z,1020
2017-09-03T10:52:10.781Z,1064
2017-09-03T10:53:19.849Z,1076
2017-09-03T10:54:28.804Z,1052
2017-09-03T10:55:37.976Z,1100
2017-09-03T10:56:46.876Z,1040
2017-09-03T10:57:55.845Z,888
2017-09-03T10:59:04.736Z,808
2017-09-03T11:00:13.573Z,832
2017-09-03T11:01:22.404Z,852
2017-09-03T11:02:31.235Z,828
2017-09-03T11:03:40.066Z,820
2017-09-03T11:04:48.895Z,968
2017-09-03T11:05:57.728Z,1164
2017-09-03T11:07:06.555Z,1180
2017-09-03T11:08:15.389Z,1196
2017-09-03T11:09:24.545Z,1136
2017-09-03T11:10:33.376Z,1228
2017-09-03T11:11:42.203Z,1236
2017-09-03T11:12:51.034Z,1420
2017-09-03T11:13:59.864Z,1976
2017-09-03T11:15:08.696Z,1676
2017-09-03T11:16:17.642Z,1592
2017-09-03T11:17:26.470Z,1664
2017-09-03T11:18:35.369Z,2240
2017-09-03T11:19:44.321Z,2736
2017-09-03T11:20:53.249Z,2436
2017-09-03T11:22:02.081Z,2204
2017-09-03T11:23:10.977Z,1956
2017-09-03T11:24:20.149Z,1720
2017-09-03T11:25:29.062Z,1700
2017-09-03T11:26:37.956Z,1032
2017-09-03T11:27:47.186Z,816
2017-09-03T11:28:56.356Z,756
2017-09-03T11:30:05.239Z,808
2017-09-03T11:31:14.085Z,1128
2017-09-03T11:32:23.065Z,1188
2017-09-03T11:33:31.892Z,900
2017-09-03T11:34:40.767Z,1468
2017-09-03T11:35:49.985Z,1640
2017-09-03T11:36:58.818Z,2188
2017-09-03T11:38:07.749Z,1868
2017-09-03T11:39:16.593Z,1772
2017-09-03T11:40:25.506Z,1680
2017-09-03T11:41:34.340Z,1660
2017-09-03T11:42:43.573Z,1712
2017-09-03T11:43:52.757Z,2232
2017-09-03T11:45:01.644Z,2036
2017-09-03T11:46:10.536Z,1996
2017-09-03T11:47:19.393Z,2300
2017-09-03T11:48:28.293Z,1476
2017-09-03T11:49:37.169Z,1584
2017-09-03T11:50:46.002Z,1472
2017-09-03T11:51:54.871Z,1560
2017-09-03T11:53:04.037Z,1492
2017-09-03T11:54:12.937Z,896
2017-09-03T11:55:21.840Z,916
2017-09-03T11:56:31.208Z,1584
2017-09-03T11:57:40.437Z,1812
2017-09-03T11:58:49.575Z,1704
2017-09-03T11:59:58.407Z,1736
2017-09-03T12:01:07.243Z,1412
2017-09-03T12:02:16.066Z,1368
2017-09-03T12:03:24.904Z,896
2017-09-03T12:04:33.735Z,884
2017-09-03T12:05:42.565Z,900
2017-09-03T12:06:51.393Z,1004
2017-09-03T12:08:00.263Z,1160
2017-09-03T12:09:09.095Z,1940
2017-09-03T12:10:17.928Z,2548
2017-09-03T12:11:26.754Z,2712
2017-09-03T12:12:35.581Z,2288
2017-09-03T12:13:44.415Z,2152
2017-09-03T12:14:53.249Z,2072
2017-09-03T12:16:02.077Z,1940
2017-09-03T12:17:10.907Z,1976
2017-09-03T12:18:19.738Z,2264
2017-09-03T12:19:28.562Z,2296
2017-09-03T12:20:37.399Z,1948
2017-09-03T12:21:46.229Z,1824
2017-09-03T12:22:55.054Z,1692
2017-09-03T12:24:03.884Z,1956
2017-09-03T12:25:12.715Z,2124
2017-09-03T12:26:21.551Z,2292
2017-09-03T12:27:30.382Z,2152
2017-09-03T12:28:39.220Z,1716
2017-09-03T12:29:48.052Z,1836
2017-09-03T12:30:56.886Z,1784
2017-09-03T12:32:05.716Z,1140
2017-09-03T12:33:14.547Z,880
2017-09-03T12:34:23.380Z,748
2017-09-03T12:35:32.209Z,748
2017-09-03T12:36:41.049Z,748
2017-09-03T12:37:49.884Z,736
2017-09-03T12:38:58.716Z,804
2017-09-03T12:40:07.560Z,912
2017-09-03T12:41:16.390Z,968
2017-09-03T12:42:25.541Z,1028
2017-09-03T12:43:34.370Z,896
2017-09-03T12:44:43.201Z,860
2017-09-03T12:45:52.038Z,884
2017-09-03T12:47:00.872Z,788
2017-09-03T12:48:09.700Z,668
2017-09-03T12:49:18.534Z,488
2017-09-03T12:50:27.374Z,348
2017-09-03T12:51:36.208Z,316
2017-09-03T12:52:45.046Z,352
2017-09-03T12:53:53.874Z,404
2017-09-03T12:55:02.926Z,488
2017-09-03T12:56:12.093Z,604
2017-09-03T12:57:20.931Z,712
2017-09-03T12:58:29.766Z,776
2017-09-03T12:59:38.591Z,840
2017-09-03T13:00:47.423Z,888
2017-09-03T13:01:56.253Z,916
2017-09-03T13:03:05.085Z,968
2017-09-03T13:04:13.917Z,980
2017-09-03T13:05:22.854Z,1076
2017-09-03T13:06:31.753Z,1224
2017-09-03T13:07:40.591Z,1380
2017-09-03T13:08:49.600Z,1512
2017-09-03T13:09:58.461Z,1612
2017-09-03T13:11:07.293Z,1756
2017-09-03T13:12:16.443Z,1728
2017-09-03T13:13:25.327Z,1700
2017-09-03T13:14:34.156Z,1732
2017-09-03T13:15:43.186Z,1792
2017-09-03T13:16:52.015Z,1700
2017-09-03T13:18:00.916Z,1700
2017-09-03T13:19:09.773Z,1820
2017-09-03T13:20:18.612Z,1800
2017-09-03T13:21:27.621Z,1748
2017-09-03T13:22:36.563Z,1636
2017-09-03T13:23:45.623Z,1524
2017-09-03T13:24:54.535Z,1492
2017-09-03T13:26:03.812Z,1484
2017-09-03T13:27:12.643Z,1448
2017-09-03T13:28:21.642Z,1440
2017-09-03T13:29:30.480Z,1308
2017-09-03T13:30:39.373Z,1140
2017-09-03T13:31:48.283Z,992
2017-09-03T13:32:57.112Z,864
2017-09-03T13:34:06.067Z,792
2017-09-03T13:35:14.893Z,852
2017-09-03T13:36:23.790Z,948
2017-09-03T13:37:32.780Z,968
2017-09-03T13:38:41.615Z,1092
2017-09-03T13:39:50.784Z,1216
2017-09-03T13:40:59.638Z,1208
2017-09-03T13:42:08.499Z,1160
2017-09-03T13:43:17.432Z,1152
2017-09-03T13:44:26.260Z,1256
2017-09-03T13:45:35.170Z,1204
2017-09-03T13:46:43.999Z,1212
2017-09-03T13:47:53.360Z,1412
2017-09-03T13:49:02.287Z,1480
2017-09-03T13:50:11.121Z,1536
2017-09-03T13:51:20.341Z,1648
2017-09-03T13:52:29.391Z,1728
2017-09-03T13:53:38.221Z,1764
2017-09-03T13:54:47.048Z,1740
2017-09-03T13:55:55.880Z,1668
2017-09-03T13:57:04.720Z,1604
2017-09-03T13:58:13.647Z,1628
2017-09-03T13:59:22.477Z,1692
2017-09-03T14:00:31.382Z,1696
2017-09-03T14:01:40.326Z,1640
2017-09-03T14:02:49.155Z,1536
2017-09-03T14:03:58.184Z,1408
2017-09-03T14:05:07.014Z,1400
2017-09-03T14:06:16.000Z,1292
2017-09-03T14:07:24.898Z,1240
2017-09-03T14:08:33.798Z,1196
2017-09-03T14:09:42.627Z,1144
2017-09-03T14:10:51.500Z,1124
2017-09-03T14:12:00.364Z,936
2017-09-03T14:13:09.189Z,748
2017-09-03T14:14:18.084Z,656
2017-09-03T14:15:26.915Z,660
2017-09-03T14:16:35.791Z,716
2017-09-03T14:17:44.624Z,840
2017-09-03T14:18:53.506Z,908
2017-09-03T14:20:02.335Z,1016
2017-09-03T14:21:11.228Z,1040
2017-09-03T14:22:20.341Z,972
2017-09-03T14:23:29.169Z,968
2017-09-03T14:24:38.117Z,1064
2017-09-03T14:25:46.950Z,1168
2017-09-03T14:26:55.882Z,1212
2017-09-03T14:28:04.710Z,1248
2017-09-03T14:29:13.605Z,1248
2017-09-03T14:30:22.451Z,1192
2017-09-03T14:31:31.291Z,1200
2017-09-03T14:32:40.502Z,1212
2017-09-03T14:33:49.400Z,1200
2017-09-03T14:34:58.959Z,1188
2017-09-03T14:36:07.871Z,1188
2017-09-03T14:37:17.049Z,1168
2017-09-03T14:38:26.707Z,1164
2017-09-03T14:39:36.276Z,1248
2017-09-03T14:40:45.234Z,1272
2017-09-03T14:41:54.070Z,1256
2017-09-03T14:43:02.904Z,1388
2017-09-03T14:44:11.928Z,1228
2017-09-03T14:45:20.783Z,1260
2017-09-03T14:46:29.610Z,1348
2017-09-03T14:47:38.522Z,1308
2017-09-03T14:48:47.641Z,1004
2017-09-03T14:49:56.740Z,1024
2017-09-03T14:51:05.574Z,1064
2017-09-03T14:52:14.420Z,1072
2017-09-03T14:53:23.247Z,996
2017-09-03T14:54:32.074Z,928
2017-09-03T14:55:40.961Z,848
2017-09-03T14:56:49.911Z,760
2017-09-03T14:57:58.741Z,752
2017-09-03T14:59:07.861Z,844
2017-09-03T15:00:16.690Z,812
2017-09-03T15:01:25.912Z,732
2017-09-03T15:02:34.738Z,648
2017-09-03T15:03:43.583Z,596
2017-09-03T15:04:52.415Z,588
2017-09-03T15:06:01.687Z,636
2017-09-03T15:07:10.879Z,704
2017-09-03T15:08:19.761Z,716
2017-09-03T15:09:28.813Z,628
2017-09-03T15:10:37.872Z,568
2017-09-03T15:11:46.848Z,616
2017-09-03T15:12:55.678Z,672
2017-09-03T15:14:04.587Z,688
2017-09-03T15:15:13.812Z,728
2017-09-03T15:16:22.768Z,780
2017-09-03T15:17:31.627Z,840
2017-09-03T15:18:40.537Z,920
2017-09-03T15:19:49.373Z,928
2017-09-03T15:20:58.235Z,956
2017-09-03T15:22:07.089Z,952
2017-09-03T15:23:16.278Z,884
2017-09-03T15:24:25.517Z,864
2017-09-03T15:25:34.389Z,844
2017-09-03T15:26:43.282Z,796
2017-09-03T15:27:52.165Z,776
2017-09-03T15:29:01.145Z,784
2017-09-03T15:30:10.007Z,780
2017-09-03T15:31:18.928Z,756
2017-09-03T15:32:27.760Z,716
2017-09-03T15:33:36.913Z,696
2017-09-03T15:34:45.818Z,680
2017-09-03T15:35:54.716Z,632
2017-09-03T15:37:03.551Z,584
2017-09-03T15:38:12.421Z,552
2017-09-03T15:39:21.579Z,492
2017-09-03T15:40:30.515Z,436
2017-09-03T15:41:39.485Z,420
2017-09-03T15:42:48.443Z,432
2017-09-03T15:43:57.338Z,460
2017-09-03T15:45:06.189Z,488
2017-09-03T15:46:15.106Z,468
2017-09-03T15:47:23.939Z,420
2017-09-03T15:48:32.765Z,384
2017-09-03T15:49:41.600Z,376
2017-09-03T15:50:50.430Z,372
2017-09-03T15:51:59.263Z,356
2017-09-03T15:53:08.244Z,356
2017-09-03T15:54:17.073Z,348
2017-09-03T15:55:26.231Z,332
2017-09-03T15:56:35.069Z,296
2017-09-03T15:57:43.896Z,240
2017-09-03T15:58:52.743Z,168
2017-09-03T16:00:01.567Z,160
2017-09-03T16:01:10.399Z,136
2017-09-03T16:02:19.226Z,112
2017-09-03T16:03:28.062Z,104
2017-09-03T16:04:36.896Z,116
2017-09-03T16:05:45.728Z,120
2017-09-03T16:06:54.581Z,124
2017-09-03T16:08:03.410Z,156
2017-09-03T16:09:12.246Z,176
2017-09-03T16:10:21.081Z,188
2017-09-03T16:11:29.906Z,188
2017-09-03T16:12:38.738Z,180
2017-09-03T16:13:47.894Z,168
2017-09-03T16:14:56.729Z,172
2017-09-03T16:16:05.559Z,168
2017-09-03T16:17:14.394Z,172
2017-09-03T16:18:23.226Z,200
2017-09-03T16:19:32.056Z,208
2017-09-03T16:20:41.216Z,216
2017-09-03T16:21:50.045Z,220
2017-09-03T16:22:58.874Z,244
2017-09-03T16:24:08.026Z,252
2017-09-03T16:25:16.855Z,272
2017-09-03T16:26:25.689Z,268
2017-09-03T16:27:34.518Z,220
2017-09-03T16:28:43.351Z,188
2017-09-03T16:29:52.186Z,212
2017-09-03T16:31:01.368Z,208
2017-09-03T16:32:10.194Z,240
2017-09-03T16:33:19.022Z,244
2017-09-03T16:34:27.853Z,216
2017-09-03T16:35:36.687Z,212
2017-09-03T16:36:45.526Z,192
2017-09-03T16:37:54.352Z,168
2017-09-03T16:39:03.180Z,124
2017-09-03T16:40:12.016Z,88
2017-09-03T16:41:20.952Z,92
2017-09-03T16:42:29.887Z,92
2017-09-03T16:43:38.743Z,108
2017-09-03T16:44:47.772Z,128
2017-09-03T16:45:56.681Z,136
2017-09-03T16:47:05.536Z,152
2017-09-03T16:48:14.374Z,172
2017-09-03T16:49:23.201Z,200
2017-09-03T16:50:32.029Z,216
2017-09-03T16:51:40.928Z,216
2017-09-03T16:52:49.758Z,216
2017-09-03T16:53:58.602Z,264
2017-09-03T16:55:07.614Z,292
2017-09-03T16:56:16.476Z,344
2017-09-03T16:57:25.308Z,364
2017-09-03T16:58:34.592Z,332
2017-09-03T16:59:43.470Z,296
2017-09-03T17:00:52.334Z,284
2017-09-03T17:02:01.293Z,256
2017-09-03T17:03:10.117Z,264
2017-09-03T17:04:18.985Z,300
2017-09-03T17:05:27.811Z,328
2017-09-03T17:06:36.670Z,372
2017-09-03T17:07:45.516Z,376
2017-09-03T17:08:54.359Z,360
2017-09-03T17:10:03.207Z,308
2017-09-03T17:11:12.056Z,276
2017-09-03T17:12:20.904Z,244
2017-09-03T17:13:29.753Z,208
2017-09-03T17:14:38.608Z,200
2017-09-03T17:15:47.468Z,196
2017-09-03T17:16:56.313Z,172
2017-09-03T17:18:05.157Z,152
2017-09-03T17:19:14.004Z,156
2017-09-03T17:20:22.854Z,152
2017-09-03T17:21:31.701Z,132
2017-09-03T17:22:40.552Z,124
2017-09-03T17:23:49.400Z,124
2017-09-03T17:24:58.261Z,116
2017-09-03T17:26:07.106Z,116
2017-09-03T17:27:15.949Z,112
2017-09-03T17:28:24.797Z,100
2017-09-03T17:29:33.985Z,88
2017-09-03T17:30:42.837Z,88
2017-09-03T17:31:51.685Z,84
2017-09-03T17:33:00.535Z,80
2017-09-03T17:34:09.378Z,72
2017-09-03T17:35:18.217Z,64
2017-09-03T17:36:27.071Z,60
2017-09-03T17:37:35.924Z,52
2017-09-03T17:38:44.767Z,48
2017-09-03T17:39:53.624Z,44
2017-09-03T17:41:02.472Z,36
2017-09-03T17:42:11.335Z,36
2017-09-03T17:43:20.182Z,32
2017-09-03T17:44:29.024Z,28
2017-09-03T17:45:37.869Z,24
2017-09-03T17:46:46.729Z,24
2017-09-03T17:47:55.567Z,16
2017-09-03T17:49:04.403Z,20
2017-09-03T17:50:13.240Z,12
2017-09-03T17:51:22.064Z,16
2017-09-03T17:52:31.218Z,12
2017-09-03T17:53:40.049Z,12
2017-09-03T17:54:48.885Z,8
2017-09-03T17:55:57.713Z,8
2017-09-03T17:57:06.545Z,12
2017-09-03T17:58:15.375Z,8
2017-09-03T17:59:24.206Z,4
2017-09-03T18:00:33.039Z,4
2017-09-03T18:01:41.876Z,4
2017-09-03T18:02:50.706Z,4
2017-09-03T18:03:59.864Z,4
2017-09-03T18:05:08.689Z,4
2017-09-03T18:06:17.519Z,0
2017-09-03T18:07:26.398Z,4
2017-09-03T18:08:35.570Z,0
2017-09-03T18:09:44.455Z,0
2017-09-03T18:10:53.289Z,0
2017-09-03T18:12:02.184Z,0
2017-09-03T18:13:11.340Z,4
2017-09-03T18:14:20.181Z,0
2017-09-03T18:15:29.080Z,0
2017-09-03T18:16:37.908Z,0
2017-09-03T18:17:46.741Z,0
2017-09-03T18:18:55.567Z,0
2017-09-03T18:20:04.462Z,0
2017-09-03T18:21:13.292Z,0
2017-09-03T18:22:22.164Z,0
2017-09-03T18:23:31.087Z,0
2017-09-03T18:24:40.010Z,0
2017-09-03T18:25:48.874Z,0
2017-09-03T18:26:57.770Z,0
2017-09-03T18:28:06.648Z,0
2017-09-03T18:29:15.474Z,0
2017-09-03T18:30:24.310Z,0
2017-09-03T18:31:33.140Z,0
2017-09-03T18:32:41.973Z,0
2017-09-03T18:33:51.010Z,0
2017-09-03T18:34:59.836Z,0
2017-09-03T18:36:08.764Z,0
2017-09-03T18:37:17.597Z,0
2017-09-03T18:38:26.551Z,0
2017-09-03T18:39:35.718Z,0
2017-09-03T18:40:44.561Z,0
2017-09-03T18:41:53.432Z,0
2017-09-03T18:43:02.548Z,0
2017-09-03T18:44:11.523Z,0
2017-09-03T18:45:20.625Z,0
2017-09-03T18:46:29.810Z,0
2017-09-03T18:47:38.862Z,0
2017-09-03T18:48:47.705Z,0
2017-09-03T18:49:56.551Z,0
2017-09-03T18:51:05.387Z,0
2017-09-03T18:52:14.266Z,0
2017-09-03T18:53:23.487Z,0
2017-09-03T18:54:32.349Z,0
2017-09-03T18:55:41.197Z,0
2017-09-03T18:56:50.089Z,0
2017-09-03T18:57:58.929Z,0
2017-09-03T18:59:07.811Z,0
2017-09-03T19:00:16.751Z,0
2017-09-03T19:01:25.635Z,0
2017-09-03T19:02:34.560Z,0
2017-09-03T19:03:43.718Z,0
2017-09-03T19:04:52.706Z,0
2017-09-03T19:06:01.530Z,0
2017-09-03T19:07:10.463Z,0
2017-09-03T19:08:19.360Z,0
2017-09-03T19:09:28.245Z,0
2017-09-03T19:10:37.076Z,0
2017-09-03T19:11:46.020Z,0
2017-09-03T19:12:55.088Z,0
2017-09-03T19:14:03.915Z,0
2017-09-03T19:15:12.813Z,0
2017-09-03T19:16:21.655Z,0
2017-09-03T19:17:30.601Z,0
2017-09-03T19:18:39.486Z,0
2017-09-03T19:19:48.385Z,0
2017-09-03T19:20:57.536Z,0
2017-09-03T19:22:06.363Z,0
2017-09-03T19:23:15.356Z,0
2017-09-03T19:24:24.184Z,0